createdAt,value
2023-05-15T00:00:27.853Z,6.20
2023-05-15T00:01:30.878Z,5.85
2023-05-15T00:02:36.558Z,6.82
2023-05-15T00:03:39.367Z,7.45
2023-05-15T00:04:42.150Z,10.07
2023-05-15T00:05:45.050Z,9.60
2023-05-15T00:06:47.774Z,8.30
2023-05-15T00:07:50.521Z,7.85
2023-05-15T00:08:53.159Z,7.88
2023-05-15T00:09:55.915Z,6.78
2023-05-15T00:11:01.391Z,6.70
2023-05-15T00:12:04.777Z,7.40
2023-05-15T00:13:07.344Z,7.00
2023-05-15T00:14:09.894Z,6.50
2023-05-15T00:15:12.976Z,5.88
2023-05-15T00:16:15.780Z,6.28
2023-05-15T00:17:18.624Z,5.85
2023-05-15T00:18:21.165Z,6.15
2023-05-15T00:19:23.737Z,5.68
2023-05-15T00:20:26.462Z,5.60
2023-05-15T00:21:29.401Z,5.97
2023-05-15T00:22:32.023Z,5.75
2023-05-15T00:23:34.616Z,6.03
2023-05-15T00:24:37.198Z,6.05
2023-05-15T00:25:39.893Z,5.95
2023-05-15T00:26:42.457Z,5.85
2023-05-15T00:27:46.773Z,6.20
2023-05-15T00:28:49.351Z,6.45
2023-05-15T00:29:53.031Z,7.07
2023-05-15T00:30:55.797Z,7.50
2023-05-15T00:31:58.494Z,8.02
2023-05-15T00:33:01.436Z,7.72
2023-05-15T00:34:04.190Z,6.40
2023-05-15T00:35:07.490Z,7.25
2023-05-15T00:36:10.179Z,6.72
2023-05-15T00:37:12.830Z,6.30
2023-05-15T00:38:15.662Z,6.95
2023-05-15T00:39:18.389Z,6.60
2023-05-15T00:40:24.246Z,6.68
2023-05-15T00:41:28.889Z,6.45
2023-05-15T00:42:32.064Z,7.43
2023-05-15T00:43:36.452Z,6.22
2023-05-15T00:44:41.242Z,6.60
2023-05-15T00:45:44.088Z,5.63
2023-05-15T00:46:47.523Z,5.75
2023-05-15T00:47:50.647Z,5.85
2023-05-15T00:48:54.239Z,6.40
2023-05-15T00:49:58.003Z,6.70
2023-05-15T00:51:00.984Z,5.95
2023-05-15T00:52:05.522Z,6.50
2023-05-15T00:53:08.649Z,6.47
2023-05-15T00:54:11.784Z,6.80
2023-05-15T00:55:14.553Z,6.40
2023-05-15T00:56:17.597Z,6.55
2023-05-15T00:57:23.505Z,6.95
2023-05-15T00:58:29.295Z,6.93
2023-05-15T00:59:32.817Z,6.35
2023-05-15T01:00:36.195Z,6.60
2023-05-15T01:01:39.463Z,6.85
2023-05-15T01:02:42.288Z,6.68
2023-05-15T01:03:45.920Z,5.88
2023-05-15T01:04:49.775Z,6.40
2023-05-15T01:05:52.442Z,6.03
2023-05-15T01:06:55.104Z,6.00
2023-05-15T01:08:20.918Z,5.60
2023-05-15T01:09:25.963Z,5.15
2023-05-15T01:10:28.680Z,6.07
2023-05-15T01:11:36.422Z,6.50
2023-05-15T01:12:41.628Z,6.95
2023-05-15T01:13:44.850Z,7.10
2023-05-15T01:14:47.499Z,6.95
2023-05-15T01:15:50.732Z,7.82
2023-05-15T01:16:53.384Z,8.07
2023-05-15T01:17:56.049Z,7.45
2023-05-15T01:18:58.793Z,7.78
2023-05-15T01:20:04.186Z,8.57
2023-05-15T01:21:34.596Z,8.05
2023-05-15T01:22:56.996Z,7.30
2023-05-15T01:24:55.880Z,6.70
2023-05-15T01:26:23.025Z,6.47
2023-05-15T01:27:43.844Z,7.50
2023-05-15T01:28:54.804Z,7.25
2023-05-15T01:30:22.660Z,6.72
2023-05-15T01:31:26.935Z,6.20
2023-05-15T01:33:01.243Z,6.88
2023-05-15T01:34:09.784Z,6.45
2023-05-15T01:35:16.770Z,6.90
2023-05-15T01:36:33.227Z,6.07
2023-05-15T01:37:41.837Z,6.75
2023-05-15T01:38:57.858Z,5.68
2023-05-15T01:40:07.882Z,5.93
2023-05-15T01:41:57.521Z,6.63
2023-05-15T01:43:09.086Z,7.13
2023-05-15T01:44:22.703Z,7.25
2023-05-15T01:45:26.919Z,6.43
2023-05-15T01:46:32.889Z,6.60
2023-05-15T01:47:44.891Z,7.05
2023-05-15T01:48:50.069Z,6.82
2023-05-15T01:49:56.852Z,6.85
2023-05-15T01:51:03.789Z,7.07
2023-05-15T01:52:16.661Z,8.68
2023-05-15T01:53:20.599Z,8.15
2023-05-15T01:54:23.327Z,7.80
2023-05-15T01:55:27.603Z,7.95
2023-05-15T01:56:31.392Z,7.28
2023-05-15T01:57:35.426Z,7.70
2023-05-15T01:58:39.345Z,7.30
2023-05-15T01:59:43.754Z,7.15
2023-05-15T02:00:48.053Z,6.72
2023-05-15T02:01:51.882Z,7.10
2023-05-15T02:02:54.955Z,6.70
2023-05-15T02:03:57.926Z,6.75
2023-05-15T02:05:02.520Z,6.35
2023-05-15T02:06:06.330Z,6.22
2023-05-15T02:07:09.751Z,7.20
2023-05-15T02:08:13.203Z,6.10
2023-05-15T02:09:16.263Z,6.13
2023-05-15T02:10:19.676Z,6.20
2023-05-15T02:11:22.810Z,6.85
2023-05-15T02:12:26.561Z,6.38
2023-05-15T02:13:32.235Z,7.75
2023-05-15T02:14:35.785Z,7.65
2023-05-15T02:15:39.000Z,8.70
2023-05-15T02:16:42.655Z,7.80
2023-05-15T02:17:45.479Z,9.07
2023-05-15T02:18:49.114Z,8.63
2023-05-15T02:19:51.849Z,8.68
2023-05-15T02:20:54.649Z,8.85
2023-05-15T02:21:57.517Z,8.05
2023-05-15T02:23:00.156Z,9.52
2023-05-15T02:24:04.364Z,8.30
2023-05-15T02:25:07.347Z,6.95
2023-05-15T02:26:32.081Z,8.10
2023-05-15T02:27:53.279Z,7.75
2023-05-15T02:29:22.641Z,7.80
2023-05-15T02:30:50.380Z,8.68
2023-05-15T02:31:58.791Z,8.43
2023-05-15T02:33:26.341Z,7.50
2023-05-15T02:34:43.302Z,7.65
2023-05-15T02:35:57.492Z,6.80
2023-05-15T02:37:02.026Z,7.47
2023-05-15T02:38:17.050Z,7.55
2023-05-15T02:39:23.612Z,7.00
2023-05-15T02:40:31.962Z,7.47
2023-05-15T02:41:37.098Z,7.35
2023-05-15T02:42:42.624Z,7.13
2023-05-15T02:43:46.861Z,7.10
2023-05-15T02:44:49.966Z,7.13
2023-05-15T02:45:53.188Z,7.07
2023-05-15T02:46:56.226Z,7.35
2023-05-15T02:47:59.777Z,8.23
2023-05-15T02:49:03.447Z,8.32
2023-05-15T02:50:07.238Z,8.15
2023-05-15T02:51:10.901Z,8.70
2023-05-15T02:52:13.585Z,8.95
2023-05-15T02:53:16.376Z,7.95
2023-05-15T02:54:19.127Z,9.32
2023-05-15T02:55:21.848Z,9.13
2023-05-15T02:56:24.433Z,9.65
2023-05-15T02:57:27.343Z,10.30
2023-05-15T02:58:29.951Z,9.70
2023-05-15T02:59:32.618Z,10.15
2023-05-15T03:00:35.429Z,10.85
2023-05-15T03:01:38.187Z,10.73
2023-05-15T03:02:41.013Z,10.30
2023-05-15T03:03:43.692Z,9.77
2023-05-15T03:04:47.924Z,9.75
2023-05-15T03:05:51.142Z,9.85
2023-05-15T03:06:53.792Z,10.20
2023-05-15T03:07:58.581Z,8.00
2023-05-15T03:09:01.270Z,9.60
2023-05-15T03:10:04.478Z,9.00
2023-05-15T03:11:07.142Z,7.90
2023-05-15T03:12:11.034Z,8.30
2023-05-15T03:13:13.700Z,9.25
2023-05-15T03:14:16.390Z,10.10
2023-05-15T03:15:19.356Z,11.15
2023-05-15T03:16:22.126Z,10.30
2023-05-15T03:17:24.837Z,10.18
2023-05-15T03:18:27.425Z,10.63
2023-05-15T03:19:29.993Z,9.65
2023-05-15T03:20:32.638Z,9.55
2023-05-15T03:21:35.348Z,9.23
2023-05-15T03:22:38.507Z,8.63
2023-05-15T03:23:41.112Z,8.88
2023-05-15T03:24:43.732Z,7.70
2023-05-15T03:25:46.479Z,9.43
2023-05-15T03:26:49.071Z,7.82
2023-05-15T03:27:51.743Z,8.80
2023-05-15T03:28:55.134Z,8.02
2023-05-15T03:29:57.783Z,8.63
2023-05-15T03:31:00.522Z,7.95
2023-05-15T03:32:03.174Z,7.50
2023-05-15T03:33:06.637Z,7.30
2023-05-15T03:34:09.480Z,7.05
2023-05-15T03:35:12.287Z,7.75
2023-05-15T03:36:14.876Z,8.30
2023-05-15T03:37:17.662Z,7.22
2023-05-15T03:38:20.518Z,7.32
2023-05-15T03:39:23.121Z,7.63
2023-05-15T03:40:25.791Z,6.75
2023-05-15T03:41:28.402Z,7.50
2023-05-15T03:42:31.058Z,7.32
2023-05-15T03:43:33.619Z,7.43
2023-05-15T03:44:36.175Z,7.35
2023-05-15T03:45:39.830Z,8.30
2023-05-15T03:46:42.850Z,8.30
2023-05-15T03:47:46.908Z,8.20
2023-05-15T03:48:49.561Z,7.82
2023-05-15T03:49:52.148Z,8.30
2023-05-15T03:50:54.875Z,7.70
2023-05-15T03:51:58.130Z,7.20
2023-05-15T03:53:00.885Z,7.07
2023-05-15T03:54:05.786Z,7.88
2023-05-15T03:55:08.699Z,6.85
2023-05-15T03:56:11.432Z,8.45
2023-05-15T03:57:14.050Z,6.93
2023-05-15T03:58:19.472Z,6.15
2023-05-15T03:59:22.057Z,6.95
2023-05-15T04:00:24.993Z,6.35
2023-05-15T04:01:28.121Z,7.28
2023-05-15T04:02:30.833Z,7.03
2023-05-15T04:03:34.022Z,7.35
2023-05-15T04:04:37.562Z,5.85
2023-05-15T04:05:40.234Z,6.90
2023-05-15T04:06:42.915Z,6.97
2023-05-15T04:07:45.829Z,7.50
2023-05-15T04:08:49.622Z,8.95
2023-05-15T04:09:52.301Z,8.60
2023-05-15T04:10:54.868Z,8.32
2023-05-15T04:11:57.457Z,10.38
2023-05-15T04:13:00.038Z,8.50
2023-05-15T04:14:02.712Z,8.65
2023-05-15T04:15:22.570Z,8.18
2023-05-15T04:16:25.317Z,8.02
2023-05-15T04:17:28.073Z,7.30
2023-05-15T04:18:30.812Z,7.55
2023-05-15T04:19:33.391Z,7.28
2023-05-15T04:20:35.991Z,6.85
2023-05-15T04:21:38.586Z,6.40
2023-05-15T04:22:42.250Z,6.57
2023-05-15T04:23:44.822Z,6.63
2023-05-15T04:24:47.457Z,7.38
2023-05-15T04:25:50.105Z,6.88
2023-05-15T04:26:52.778Z,6.97
2023-05-15T04:27:56.422Z,6.53
2023-05-15T04:29:04.080Z,5.65
2023-05-15T04:30:09.220Z,7.35
2023-05-15T04:31:11.953Z,6.95
2023-05-15T04:32:14.669Z,5.65
2023-05-15T04:33:17.297Z,6.40
2023-05-15T04:34:20.305Z,7.25
2023-05-15T04:35:23.044Z,6.05
2023-05-15T04:36:25.903Z,6.93
2023-05-15T04:37:29.452Z,6.85
2023-05-15T04:38:32.498Z,7.10
2023-05-15T04:39:35.190Z,7.38
2023-05-15T04:40:37.949Z,7.22
2023-05-15T04:41:40.547Z,6.63
2023-05-15T04:42:43.276Z,7.95
2023-05-15T04:43:46.068Z,8.10
2023-05-15T04:44:48.760Z,6.60
2023-05-15T04:45:51.382Z,6.80
2023-05-15T04:46:54.007Z,7.10
2023-05-15T04:47:56.911Z,7.57
2023-05-15T04:48:59.607Z,7.18
2023-05-15T04:50:02.235Z,6.70
2023-05-15T04:51:04.929Z,6.50
2023-05-15T04:52:08.087Z,7.20
2023-05-15T04:53:10.794Z,7.68
2023-05-15T04:54:13.451Z,7.20
2023-05-15T04:55:16.121Z,7.32
2023-05-15T04:56:18.704Z,6.65
2023-05-15T04:57:22.122Z,7.25
2023-05-15T04:58:24.926Z,8.10
2023-05-15T04:59:28.985Z,6.93
2023-05-15T05:00:32.044Z,6.80
2023-05-15T05:01:34.841Z,6.75
2023-05-15T05:02:38.378Z,7.40
2023-05-15T05:03:41.141Z,11.10
2023-05-15T05:04:45.805Z,21.70
2023-05-15T05:05:49.517Z,16.15
2023-05-15T05:06:52.742Z,21.48
2023-05-15T05:07:55.395Z,19.02
2023-05-15T05:08:58.472Z,17.73
2023-05-15T05:10:01.239Z,16.17
2023-05-15T05:11:04.044Z,15.13
2023-05-15T05:12:09.781Z,15.43
2023-05-15T05:13:12.433Z,13.82
2023-05-15T05:14:15.759Z,14.73
2023-05-15T05:15:18.754Z,14.43
2023-05-15T05:16:21.350Z,12.85
2023-05-15T05:17:24.230Z,11.75
2023-05-15T05:18:26.971Z,11.60
2023-05-15T05:19:29.834Z,11.75
2023-05-15T05:20:32.618Z,12.13
2023-05-15T05:21:35.187Z,11.18
2023-05-15T05:22:38.362Z,10.32
2023-05-15T05:23:40.963Z,9.75
2023-05-15T05:24:43.589Z,9.52
2023-05-15T05:25:46.245Z,9.20
2023-05-15T05:26:49.227Z,9.90
2023-05-15T05:27:52.001Z,8.90
2023-05-15T05:28:54.589Z,8.45
2023-05-15T05:29:57.373Z,11.43
2023-05-15T05:31:00.204Z,11.05
2023-05-15T05:32:02.861Z,9.80
2023-05-15T05:33:06.472Z,10.80
2023-05-15T05:34:09.342Z,10.00
2023-05-15T05:35:11.999Z,8.68
2023-05-15T05:36:17.902Z,10.40
2023-05-15T05:37:20.611Z,8.20
2023-05-15T05:38:23.209Z,8.02
2023-05-15T05:39:25.847Z,7.40
2023-05-15T05:40:28.447Z,7.68
2023-05-15T05:41:31.159Z,7.75
2023-05-15T05:42:33.892Z,6.85
2023-05-15T05:43:36.509Z,6.75
2023-05-15T05:44:39.110Z,7.63
2023-05-15T05:45:41.675Z,7.90
2023-05-15T05:46:45.614Z,6.50
2023-05-15T05:47:48.359Z,9.23
2023-05-15T05:48:51.065Z,7.55
2023-05-15T05:49:55.123Z,7.10
2023-05-15T05:50:58.883Z,7.38
2023-05-15T05:52:08.144Z,7.70
2023-05-15T05:53:10.767Z,6.78
2023-05-15T05:54:15.099Z,7.25
2023-05-15T05:55:17.734Z,7.80
2023-05-15T05:56:21.804Z,8.18
2023-05-15T05:57:24.490Z,6.95
2023-05-15T05:58:27.156Z,8.05
2023-05-15T05:59:30.030Z,6.80
2023-05-15T06:00:32.591Z,7.43
2023-05-15T06:01:35.409Z,8.00
2023-05-15T06:02:38.910Z,7.40
2023-05-15T06:03:43.301Z,7.47
2023-05-15T06:04:46.485Z,7.47
2023-05-15T06:05:49.050Z,7.18
2023-05-15T06:06:51.946Z,7.10
2023-05-15T06:07:55.642Z,7.47
2023-05-15T06:08:58.232Z,7.40
2023-05-15T06:10:01.307Z,6.18
2023-05-15T06:11:04.252Z,7.05
2023-05-15T06:12:08.483Z,6.88
2023-05-15T06:13:11.759Z,6.93
2023-05-15T06:14:14.330Z,6.95
2023-05-15T06:15:17.214Z,7.20
2023-05-15T06:16:19.876Z,7.25
2023-05-15T06:17:22.802Z,7.50
2023-05-15T06:18:25.595Z,6.50
2023-05-15T06:19:29.370Z,6.78
2023-05-15T06:20:32.093Z,8.07
2023-05-15T06:21:34.983Z,8.13
2023-05-15T06:22:37.751Z,7.35
2023-05-15T06:23:40.475Z,7.75
2023-05-15T06:24:43.053Z,7.38
2023-05-15T06:25:45.670Z,7.40
2023-05-15T06:26:49.685Z,7.65
2023-05-15T06:27:53.141Z,6.88
2023-05-15T06:28:56.096Z,6.53
2023-05-15T06:29:58.690Z,7.55
2023-05-15T06:31:01.348Z,6.15
2023-05-15T06:32:04.454Z,6.65
2023-05-15T06:33:07.067Z,7.22
2023-05-15T06:34:09.799Z,7.32
2023-05-15T06:35:12.523Z,6.50
2023-05-15T06:36:15.201Z,6.35
2023-05-15T06:37:18.055Z,6.57
2023-05-15T06:38:20.675Z,6.50
2023-05-15T06:39:23.431Z,6.10
2023-05-15T06:40:26.291Z,6.60
2023-05-15T06:41:29.150Z,6.03
2023-05-15T06:42:32.041Z,7.15
2023-05-15T06:43:35.837Z,6.32
2023-05-15T06:44:39.467Z,6.20
2023-05-15T06:45:42.588Z,7.40
2023-05-15T06:46:45.514Z,6.40
2023-05-15T06:47:48.260Z,6.60
2023-05-15T06:48:50.935Z,6.80
2023-05-15T06:49:55.542Z,6.88
2023-05-15T06:50:58.587Z,6.75
2023-05-15T06:52:01.237Z,6.25
2023-05-15T06:53:03.855Z,7.50
2023-05-15T06:54:06.581Z,7.40
2023-05-15T06:55:09.399Z,9.32
2023-05-15T06:56:12.067Z,8.35
2023-05-15T06:57:15.374Z,6.65
2023-05-15T06:58:18.179Z,8.02
2023-05-15T06:59:20.864Z,7.80
2023-05-15T07:00:23.441Z,8.90
2023-05-15T07:01:26.112Z,8.60
2023-05-15T07:02:28.923Z,8.20
2023-05-15T07:03:31.574Z,7.78
2023-05-15T07:04:34.291Z,8.20
2023-05-15T07:05:37.168Z,8.00
2023-05-15T07:06:40.043Z,7.55
2023-05-15T07:07:43.062Z,7.88
2023-05-15T07:08:47.184Z,7.10
2023-05-15T07:09:50.463Z,7.20
2023-05-15T07:10:53.226Z,7.50
2023-05-15T07:11:55.799Z,7.28
2023-05-15T07:12:58.380Z,6.80
2023-05-15T07:14:01.043Z,7.50
2023-05-15T07:15:05.431Z,7.00
2023-05-15T07:16:08.282Z,7.68
2023-05-15T07:17:11.187Z,7.53
2023-05-15T07:18:14.284Z,6.32
2023-05-15T07:19:23.122Z,7.22
2023-05-15T07:20:29.157Z,6.50
2023-05-15T07:21:33.016Z,6.50
2023-05-15T07:22:44.473Z,6.65
2023-05-15T07:23:51.447Z,6.78
2023-05-15T07:24:54.036Z,6.30
2023-05-15T07:25:56.706Z,6.10
2023-05-15T07:26:59.581Z,6.00
2023-05-15T07:28:02.149Z,6.27
2023-05-15T07:29:04.790Z,6.97
2023-05-15T07:30:08.302Z,6.53
2023-05-15T07:31:10.916Z,6.10
2023-05-15T07:32:13.555Z,6.00
2023-05-15T07:33:16.200Z,6.40
2023-05-15T07:34:18.908Z,6.37
2023-05-15T07:35:21.813Z,5.37
2023-05-15T07:36:24.369Z,6.10
2023-05-15T07:37:26.954Z,5.43
2023-05-15T07:38:29.616Z,5.80
2023-05-15T07:39:32.254Z,5.80
2023-05-15T07:40:34.908Z,5.67
2023-05-15T07:41:37.491Z,5.97
2023-05-15T07:42:40.056Z,4.83
2023-05-15T07:43:42.688Z,5.93
2023-05-15T07:44:47.188Z,6.63
2023-05-15T07:45:51.608Z,6.80
2023-05-15T07:46:56.664Z,6.73
2023-05-15T07:48:00.167Z,6.33
2023-05-15T07:49:02.913Z,5.90
2023-05-15T07:50:06.269Z,6.00
2023-05-15T07:51:08.932Z,5.97
2023-05-15T07:52:11.629Z,5.47
2023-05-15T07:53:16.923Z,6.03
2023-05-15T07:54:19.514Z,5.50
2023-05-15T07:55:22.395Z,5.50
2023-05-15T07:56:25.367Z,5.60
2023-05-15T07:57:27.992Z,6.23
2023-05-15T07:58:30.671Z,5.50
2023-05-15T07:59:33.569Z,5.10
2023-05-15T08:00:36.979Z,5.07
2023-05-15T08:01:39.662Z,6.27
2023-05-15T08:02:46.240Z,5.67
2023-05-15T08:03:49.167Z,4.68
2023-05-15T08:04:52.096Z,5.30
2023-05-15T08:05:54.706Z,5.40
2023-05-15T08:06:57.400Z,6.00
2023-05-15T08:08:00.774Z,5.50
2023-05-15T08:09:03.449Z,5.67
2023-05-15T08:10:07.665Z,4.73
2023-05-15T08:11:10.263Z,6.20
2023-05-15T08:12:22.913Z,6.27
2023-05-15T08:13:25.703Z,5.17
2023-05-15T08:14:28.384Z,5.63
2023-05-15T08:15:31.290Z,5.87
2023-05-15T08:16:34.657Z,7.50
2023-05-15T08:17:37.313Z,5.80
2023-05-15T08:18:39.943Z,7.87
2023-05-15T08:19:42.999Z,7.03
2023-05-15T08:20:46.004Z,6.63
2023-05-15T08:21:48.606Z,6.00
2023-05-15T08:22:51.244Z,8.33
2023-05-15T08:23:54.668Z,7.87
2023-05-15T08:24:58.276Z,8.00
2023-05-15T08:26:01.203Z,7.37
2023-05-15T08:27:06.367Z,7.30
2023-05-15T08:28:09.019Z,7.65
2023-05-15T08:29:11.719Z,7.63
2023-05-15T08:30:14.768Z,8.20
2023-05-15T08:31:17.459Z,8.70
2023-05-15T08:32:20.136Z,9.80
2023-05-15T08:33:22.726Z,8.73
2023-05-15T08:34:25.699Z,6.20
2023-05-15T08:35:28.708Z,9.33
2023-05-15T08:36:31.513Z,9.10
2023-05-15T08:37:34.611Z,8.03
2023-05-15T08:38:37.195Z,7.70
2023-05-15T08:39:39.837Z,7.23
2023-05-15T08:40:48.855Z,7.00
2023-05-15T08:42:21.297Z,8.60
2023-05-15T08:43:26.743Z,8.40
2023-05-15T08:44:29.619Z,7.10
2023-05-15T08:45:32.458Z,7.57
2023-05-15T08:46:36.028Z,6.50
2023-05-15T08:47:41.204Z,6.67
2023-05-15T08:48:44.266Z,6.13
2023-05-15T08:50:05.409Z,5.53
2023-05-15T08:51:10.959Z,5.57
2023-05-15T08:52:13.823Z,7.22
2023-05-15T08:53:16.645Z,7.53
2023-05-15T08:54:19.683Z,6.30
2023-05-15T08:55:23.989Z,5.40
2023-05-15T08:56:26.939Z,4.83
2023-05-15T08:57:30.242Z,5.90
2023-05-15T08:58:33.691Z,5.30
2023-05-15T08:59:37.675Z,4.40
2023-05-15T09:00:40.561Z,4.30
2023-05-15T09:01:43.294Z,4.67
2023-05-15T09:02:46.031Z,4.30
2023-05-15T09:03:49.026Z,5.20
2023-05-15T09:04:51.726Z,4.47
2023-05-15T09:05:55.448Z,5.00
2023-05-15T09:07:01.733Z,4.90
2023-05-15T09:08:06.622Z,4.53
2023-05-15T09:09:13.041Z,5.00
2023-05-15T09:10:17.674Z,4.80
2023-05-15T09:11:21.804Z,4.87
2023-05-15T09:12:26.392Z,4.80
2023-05-15T09:13:29.962Z,4.07
2023-05-15T09:14:32.726Z,4.67
2023-05-15T09:15:37.329Z,4.20
2023-05-15T09:16:40.406Z,4.60
2023-05-15T09:17:44.119Z,4.53
2023-05-15T09:18:47.131Z,4.67
2023-05-15T09:19:49.749Z,4.50
2023-05-15T09:20:54.108Z,5.23
2023-05-15T09:22:23.431Z,4.23
2023-05-15T09:23:27.912Z,4.83
2023-05-15T09:24:31.628Z,5.27
2023-05-15T09:25:39.843Z,5.17
2023-05-15T09:26:44.174Z,5.00
2023-05-15T09:27:46.859Z,3.90
2023-05-15T09:28:49.970Z,4.23
2023-05-15T09:29:56.358Z,6.10
2023-05-15T09:31:01.152Z,5.50
2023-05-15T09:32:10.248Z,4.87
2023-05-15T09:33:12.972Z,4.70
2023-05-15T09:34:15.763Z,4.13
2023-05-15T09:35:38.536Z,4.23
2023-05-15T09:36:46.960Z,4.60
2023-05-15T09:38:00.214Z,4.10
2023-05-15T09:39:03.284Z,4.40
2023-05-15T09:40:11.224Z,4.00
2023-05-15T09:41:14.264Z,4.80
2023-05-15T09:42:16.918Z,4.20
2023-05-15T09:43:19.532Z,4.63
2023-05-15T09:44:26.561Z,4.50
2023-05-15T09:45:30.020Z,4.20
2023-05-15T09:46:36.575Z,4.20
2023-05-15T09:47:39.524Z,3.97
2023-05-15T09:48:42.578Z,4.10
2023-05-15T09:49:45.731Z,4.67
2023-05-15T09:50:49.853Z,5.27
2023-05-15T09:51:52.649Z,4.60
2023-05-15T09:52:58.922Z,4.37
2023-05-15T09:54:01.530Z,3.80
2023-05-15T09:55:05.306Z,5.00
2023-05-15T09:56:10.593Z,4.67
2023-05-15T09:57:14.384Z,4.00
2023-05-15T09:58:19.001Z,3.70
2023-05-15T09:59:21.895Z,3.40
2023-05-15T10:00:24.989Z,3.40
2023-05-15T10:01:28.026Z,4.00
2023-05-15T10:02:32.777Z,6.93
2023-05-15T10:03:35.928Z,5.13
2023-05-15T10:04:39.012Z,5.80
2023-05-15T10:05:43.532Z,5.23
2023-05-15T10:06:48.982Z,4.50
2023-05-15T10:07:54.518Z,4.40
2023-05-15T10:08:57.771Z,4.63
2023-05-15T10:10:02.693Z,5.53
2023-05-15T10:11:07.128Z,4.53
2023-05-15T10:12:10.198Z,4.90
2023-05-15T10:13:12.907Z,4.13
2023-05-15T10:14:18.851Z,4.30
2023-05-15T10:15:22.918Z,4.00
2023-05-15T10:16:28.324Z,4.20
2023-05-15T10:17:36.257Z,3.87
2023-05-15T10:18:41.584Z,3.90
2023-05-15T10:19:57.085Z,4.50
2023-05-15T10:21:04.192Z,4.37
2023-05-15T10:22:08.685Z,3.53
2023-05-15T10:23:14.545Z,4.67
2023-05-15T10:24:20.475Z,4.60
2023-05-15T10:25:46.480Z,6.90
2023-05-15T10:26:49.830Z,5.50
2023-05-15T10:27:54.223Z,6.33
2023-05-15T10:28:57.693Z,5.97
2023-05-15T10:30:01.417Z,4.67
2023-05-15T10:31:06.074Z,5.67
2023-05-15T10:32:09.203Z,5.33
2023-05-15T10:33:12.712Z,6.33
2023-05-15T10:34:16.536Z,5.47
2023-05-15T10:35:19.162Z,5.07
2023-05-15T10:36:22.180Z,4.20
2023-05-15T10:37:25.304Z,5.43
2023-05-15T10:38:29.285Z,5.53
2023-05-15T10:39:32.792Z,5.30
2023-05-15T10:40:39.501Z,5.70
2023-05-15T10:41:43.029Z,6.20
2023-05-15T10:42:47.714Z,7.30
2023-05-15T10:43:52.008Z,5.80
2023-05-15T10:45:00.094Z,6.97
2023-05-15T10:46:04.979Z,6.30
2023-05-15T10:47:08.770Z,5.63
2023-05-15T10:48:12.451Z,5.37
2023-05-15T10:49:15.424Z,5.20
2023-05-15T10:50:18.616Z,5.33
2023-05-15T10:51:36.906Z,5.43
2023-05-15T10:52:40.335Z,6.23
2023-05-15T10:53:47.120Z,4.93
2023-05-15T10:54:49.903Z,5.00
2023-05-15T10:55:52.561Z,4.70
2023-05-15T10:56:58.496Z,4.90
2023-05-15T10:58:01.368Z,4.70
2023-05-15T10:59:11.382Z,4.93
2023-05-15T11:00:23.060Z,4.90
2023-05-15T11:01:40.408Z,4.57
2023-05-15T11:02:43.172Z,5.80
2023-05-15T11:03:50.004Z,6.17
2023-05-15T11:05:01.955Z,4.80
2023-05-15T11:06:12.392Z,4.50
2023-05-15T11:07:18.036Z,4.93
2023-05-15T11:08:23.231Z,4.47
2023-05-15T11:09:37.093Z,4.60
2023-05-15T11:10:39.729Z,4.63
2023-05-15T11:12:00.277Z,5.17
2023-05-15T11:13:04.474Z,5.33
2023-05-15T11:14:12.473Z,4.93
2023-05-15T11:15:14.935Z,4.80
2023-05-15T11:16:55.786Z,5.30
2023-05-15T11:18:06.299Z,4.37
2023-05-15T11:19:33.557Z,4.30
2023-05-15T11:21:02.105Z,4.65
2023-05-15T11:22:21.038Z,4.40
2023-05-15T11:23:25.588Z,4.77
2023-05-15T11:24:33.686Z,4.63
2023-05-15T11:25:37.300Z,4.10
2023-05-15T11:26:43.162Z,4.47
2023-05-15T11:27:46.648Z,5.00
2023-05-15T11:28:49.395Z,4.20
2023-05-15T11:30:12.677Z,3.83
2023-05-15T11:31:16.055Z,4.20
2023-05-15T11:32:46.776Z,4.10
2023-05-15T11:33:52.531Z,3.90
2023-05-15T11:35:01.334Z,4.70
2023-05-15T11:36:06.154Z,5.22
2023-05-15T11:37:17.698Z,4.90
2023-05-15T11:38:25.056Z,5.30
2023-05-15T11:39:28.826Z,4.30
2023-05-15T11:40:46.566Z,5.97
2023-05-15T11:41:50.109Z,4.53
2023-05-15T11:43:31.997Z,6.50
2023-05-15T11:44:34.612Z,6.40
2023-05-15T11:45:39.655Z,5.80
2023-05-15T11:46:43.643Z,5.07
2023-05-15T11:47:46.468Z,4.90
2023-05-15T11:48:50.813Z,4.60
2023-05-15T11:49:53.564Z,5.10
2023-05-15T11:50:56.307Z,5.10
2023-05-15T11:51:59.814Z,5.40
2023-05-15T11:53:04.720Z,5.20
2023-05-15T11:54:08.108Z,5.30
2023-05-15T11:55:11.054Z,5.07
2023-05-15T11:56:23.137Z,4.40
2023-05-15T11:57:25.766Z,4.23
2023-05-15T11:58:28.374Z,4.63
2023-05-15T11:59:34.223Z,5.00
2023-05-15T12:00:36.922Z,5.40
2023-05-15T12:01:44.206Z,4.77
2023-05-15T12:02:47.022Z,4.60
2023-05-15T12:03:50.733Z,5.20
2023-05-15T12:04:53.858Z,4.10
2023-05-15T12:06:00.177Z,4.00
2023-05-15T12:07:03.420Z,4.80
2023-05-15T12:08:11.487Z,4.50
2023-05-15T12:09:17.545Z,5.07
2023-05-15T12:10:20.170Z,5.10
2023-05-15T12:11:24.590Z,5.10
2023-05-15T12:12:29.039Z,4.70
2023-05-15T12:13:33.417Z,4.30
2023-05-15T12:14:36.055Z,4.43
2023-05-15T12:15:40.992Z,4.47
2023-05-15T12:16:43.751Z,4.67
2023-05-15T12:17:46.758Z,4.10
2023-05-15T12:18:53.124Z,3.87
2023-05-15T12:19:57.360Z,4.30
2023-05-15T12:21:00.274Z,3.93
2023-05-15T12:22:06.783Z,4.93
2023-05-15T12:23:09.448Z,4.50
2023-05-15T12:24:13.093Z,4.43
2023-05-15T12:25:16.499Z,4.57
2023-05-15T12:26:21.719Z,4.33
2023-05-15T12:27:24.640Z,4.50
2023-05-15T12:28:28.796Z,5.50
2023-05-15T12:29:32.061Z,4.00
2023-05-15T12:30:35.305Z,4.90
2023-05-15T12:31:38.538Z,4.70
2023-05-15T12:32:41.619Z,4.67
2023-05-15T12:33:45.224Z,3.70
2023-05-15T12:34:48.314Z,4.57
2023-05-15T12:35:59.119Z,4.90
2023-05-15T12:37:03.993Z,5.27
2023-05-15T12:38:07.364Z,5.40
2023-05-15T12:39:10.926Z,5.03
2023-05-15T12:40:15.251Z,6.50
2023-05-15T12:41:19.979Z,6.20
2023-05-15T12:42:23.412Z,6.23
2023-05-15T12:43:26.404Z,6.80
2023-05-15T12:44:29.442Z,7.10
2023-05-15T12:45:37.376Z,6.47
2023-05-15T12:46:41.268Z,5.90
2023-05-15T12:47:45.838Z,6.80
2023-05-15T12:48:49.764Z,5.60
2023-05-15T12:49:57.396Z,6.80
2023-05-15T12:51:09.546Z,6.50
2023-05-15T12:52:13.684Z,6.30
2023-05-15T12:53:17.460Z,7.93
2023-05-15T12:54:24.597Z,7.13
2023-05-15T12:55:33.133Z,6.70
2023-05-15T12:56:36.000Z,7.70
2023-05-15T12:57:38.625Z,7.00
2023-05-15T12:58:41.385Z,6.87
2023-05-15T12:59:44.191Z,6.10
2023-05-15T13:00:48.015Z,7.13
2023-05-15T13:01:50.991Z,7.07
2023-05-15T13:02:56.418Z,6.80
2023-05-15T13:03:59.227Z,6.90
2023-05-15T13:05:05.347Z,6.20
2023-05-15T13:06:10.792Z,6.30
2023-05-15T13:07:18.585Z,6.40
2023-05-15T13:08:21.328Z,6.10
2023-05-15T13:09:23.910Z,5.90
2023-05-15T13:10:26.892Z,5.77
2023-05-15T13:11:33.931Z,6.37
2023-05-15T13:12:46.868Z,5.07
2023-05-15T13:13:50.560Z,5.70
2023-05-15T13:14:53.152Z,6.07
2023-05-15T13:15:55.780Z,5.78
2023-05-15T13:17:04.830Z,7.60
2023-05-15T13:18:21.038Z,6.30
2023-05-15T13:19:23.793Z,6.20
2023-05-15T13:20:34.098Z,6.30
2023-05-15T13:21:36.743Z,6.60
2023-05-15T13:22:39.371Z,5.67
2023-05-15T13:23:42.057Z,6.50
2023-05-15T13:24:47.308Z,5.80
2023-05-15T13:25:49.950Z,5.00
2023-05-15T13:26:52.988Z,5.57
2023-05-15T13:28:00.497Z,5.40
2023-05-15T13:29:03.094Z,6.13
2023-05-15T13:30:06.981Z,5.33
2023-05-15T13:31:09.828Z,5.20
2023-05-15T13:32:12.427Z,4.40
2023-05-15T13:33:15.094Z,4.63
2023-05-15T13:34:17.709Z,4.03
2023-05-15T13:35:21.795Z,4.00
2023-05-15T13:37:44.710Z,4.15
2023-05-15T13:38:47.331Z,4.37
2023-05-15T13:39:49.948Z,5.63
2023-05-15T13:40:52.663Z,4.40
2023-05-15T13:41:55.209Z,6.83
2023-05-15T13:42:57.846Z,5.83
2023-05-15T13:44:00.688Z,5.50
2023-05-15T13:45:05.773Z,5.97
2023-05-15T13:46:09.333Z,5.30
2023-05-15T13:47:11.935Z,4.80
2023-05-15T13:48:14.599Z,4.47
2023-05-15T13:49:17.231Z,5.17
2023-05-15T13:50:19.871Z,4.30
2023-05-15T13:51:22.749Z,3.60
2023-05-15T13:52:26.992Z,3.80
2023-05-15T13:53:29.566Z,4.60
2023-05-15T13:54:32.239Z,4.00
2023-05-15T13:55:34.973Z,4.37
2023-05-15T13:56:37.611Z,4.40
2023-05-15T13:57:41.772Z,3.90
2023-05-15T13:58:44.354Z,4.20
2023-05-15T13:59:47.070Z,4.43
2023-05-15T14:00:49.918Z,4.25
2023-05-15T14:01:52.818Z,4.33
2023-05-15T14:02:55.547Z,5.50
2023-05-15T14:03:58.293Z,4.83
2023-05-15T14:05:01.303Z,5.27
2023-05-15T14:06:04.135Z,5.30
2023-05-15T14:07:06.752Z,4.50
2023-05-15T14:08:09.522Z,4.57
2023-05-15T14:09:13.238Z,4.53
2023-05-15T14:10:15.818Z,4.03
2023-05-15T14:11:18.424Z,4.77
2023-05-15T14:12:22.153Z,4.20
2023-05-15T14:13:24.831Z,4.50
2023-05-15T14:14:27.432Z,3.90
2023-05-15T14:15:30.019Z,4.20
2023-05-15T14:16:32.663Z,5.13
2023-05-15T14:17:35.422Z,4.30
2023-05-15T14:18:38.175Z,4.90
2023-05-15T14:19:41.476Z,4.00
2023-05-15T14:20:44.344Z,4.10
2023-05-15T14:21:46.924Z,3.73
2023-05-15T14:22:49.540Z,4.40